createdAt,value
2019-05-02T00:01:15.460Z,125.27
2019-05-02T00:03:46.841Z,122.37
2019-05-02T00:06:19.152Z,115.17
2019-05-02T00:08:52.089Z,118.03
2019-05-02T00:11:24.207Z,124.40
2019-05-02T00:13:55.227Z,114.63
2019-05-02T00:16:27.347Z,123.23
2019-05-02T00:18:59.513Z,127.47
2019-05-02T00:21:32.893Z,124.47
2019-05-02T00:24:04.235Z,121.80
2019-05-02T00:26:35.866Z,125.60
2019-05-02T00:29:09.795Z,131.07
2019-05-02T00:31:41.959Z,129.53
2019-05-02T00:34:11.981Z,126.07
2019-05-02T00:36:46.804Z,121.60
2019-05-02T00:39:18.475Z,123.40
2019-05-02T00:41:50.007Z,127.63
2019-05-02T00:44:22.347Z,130.80
2019-05-02T00:46:56.648Z,126.13
2019-05-02T00:49:30.747Z,128.27
2019-05-02T00:52:07.806Z,129.23
2019-05-02T00:54:38.013Z,121.27
2019-05-02T00:57:14.976Z,124.53
2019-05-02T00:59:45.588Z,124.37
2019-05-02T01:02:41.864Z,121.33
2019-05-02T01:05:15.320Z,119.57
2019-05-02T01:07:47.183Z,126.97
2019-05-02T01:10:21.347Z,128.47
2019-05-02T01:12:51.047Z,124.37
2019-05-02T01:15:21.304Z,124.67
2019-05-02T01:17:53.270Z,120.43
2019-05-02T01:20:27.724Z,115.73
2019-05-02T01:22:57.615Z,117.67
2019-05-02T01:25:28.207Z,119.77
2019-05-02T01:28:18.835Z,122.07
2019-05-02T01:31:28.288Z,119.10
2019-05-02T01:34:27.601Z,114.13
2019-05-02T01:37:05.318Z,119.60
2019-05-02T01:39:37.965Z,111.47
2019-05-02T01:42:09.906Z,111.20
2019-05-02T01:44:43.515Z,111.13
2019-05-02T01:47:14.021Z,113.93
2019-05-02T01:49:46.119Z,107.83
2019-05-02T01:55:17.094Z,110.83
2019-05-02T01:57:50.066Z,112.63
2019-05-02T02:00:21.591Z,113.87
2019-05-02T02:02:53.807Z,115.33
2019-05-02T02:05:27.652Z,115.77
2019-05-02T02:07:57.440Z,117.63
2019-05-02T02:10:29.497Z,125.67
2019-05-02T02:13:04.701Z,124.57
2019-05-02T02:15:33.766Z,124.27
2019-05-02T02:18:05.191Z,119.93
2019-05-02T02:20:52.166Z,126.27
2019-05-02T02:23:31.954Z,129.37
2019-05-02T02:26:11.402Z,121.17
2019-05-02T02:28:39.529Z,127.47
2019-05-02T02:31:13.067Z,127.67
2019-05-02T02:33:48.114Z,126.70
2019-05-02T02:36:16.413Z,124.13
2019-05-02T02:38:47.727Z,127.03
2019-05-02T02:41:22.574Z,122.77
2019-05-02T02:44:13.195Z,124.20
2019-05-02T02:46:45.450Z,114.77
2019-05-02T02:49:21.237Z,121.17
2019-05-02T02:51:50.935Z,124.97
2019-05-02T02:54:22.681Z,126.43
2019-05-02T02:56:56.166Z,117.37
2019-05-02T02:59:28.194Z,127.03
2019-05-02T03:02:08.983Z,120.43
2019-05-02T03:04:33.435Z,113.57
2019-05-02T03:07:08.047Z,120.13
2019-05-02T03:09:40.804Z,112.77
2019-05-02T03:12:29.091Z,110.90
2019-05-02T03:15:03.127Z,114.63
2019-05-02T03:17:34.869Z,116.30
2019-05-02T03:20:06.775Z,113.07
2019-05-02T03:22:41.867Z,109.33
2019-05-02T03:25:18.372Z,108.23
2019-05-02T03:27:48.813Z,112.10
2019-05-02T03:30:32.259Z,120.63
2019-05-02T03:33:06.452Z,111.23
2019-05-02T03:35:41.885Z,110.87
2019-05-02T03:38:03.857Z,105.97
2019-05-02T03:40:39.077Z,110.67
2019-05-02T03:43:11.259Z,105.27
2019-05-02T03:45:43.191Z,104.83
2019-05-02T03:48:18.457Z,110.57
2019-05-02T03:50:46.450Z,101.83
2019-05-02T03:53:25.061Z,112.47
2019-05-02T03:55:53.911Z,112.47
2019-05-02T03:58:26.956Z,110.03
2019-05-02T04:01:02.080Z,102.83
2019-05-02T04:03:33.849Z,102.93
2019-05-02T04:06:05.126Z,113.23
2019-05-02T04:08:37.312Z,109.10
2019-05-02T04:11:26.529Z,101.70
2019-05-02T04:13:58.485Z,100.10
2019-05-02T04:16:31.010Z,110.07
2019-05-02T04:19:07.333Z,109.80
2019-05-02T04:21:39.719Z,113.77
2019-05-02T04:24:15.678Z,110.03
2019-05-02T04:26:54.299Z,109.37
2019-05-02T04:29:24.436Z,105.63
2019-05-02T04:31:56.422Z,109.00
2019-05-02T04:34:27.075Z,112.57
2019-05-02T04:37:01.177Z,103.63
2019-05-02T04:39:31.487Z,112.97
2019-05-02T04:42:11.628Z,113.50
2019-05-02T04:44:46.348Z,108.80
2019-05-02T04:47:17.490Z,113.83
2019-05-02T04:49:51.860Z,109.80
2019-05-02T04:52:21.388Z,109.87
2019-05-02T04:55:08.002Z,111.03
2019-05-02T04:57:36.855Z,108.30
2019-05-02T05:00:08.453Z,111.37
2019-05-02T05:02:39.965Z,114.50
2019-05-02T05:05:10.563Z,116.63
2019-05-02T05:07:46.255Z,114.83
2019-05-02T05:10:14.617Z,116.90
2019-05-02T05:12:48.011Z,116.00
2019-05-02T05:15:35.823Z,115.77
2019-05-02T05:17:53.622Z,119.43
2019-05-02T05:20:25.106Z,116.30
2019-05-02T05:22:58.746Z,126.00
2019-05-02T05:25:37.919Z,118.57
2019-05-02T05:28:09.040Z,123.63
2019-05-02T05:30:45.317Z,117.50
2019-05-02T05:33:13.473Z,118.17
2019-05-02T05:35:48.756Z,112.93
2019-05-02T05:38:22.944Z,110.63
2019-05-02T05:40:55.376Z,120.67
2019-05-02T05:43:27.540Z,112.03
2019-05-02T05:46:09.241Z,115.57
2019-05-02T05:48:37.139Z,116.73
2019-05-02T05:51:07.263Z,120.30
2019-05-02T05:53:37.859Z,131.47
2019-05-02T05:56:11.448Z,122.07
2019-05-02T05:58:48.153Z,119.27
2019-05-02T06:01:20.355Z,123.03
2019-05-02T06:03:52.594Z,125.03
2019-05-02T06:06:24.577Z,127.33
2019-05-02T06:09:01.538Z,132.93
2019-05-02T06:11:33.139Z,115.00
2019-05-02T06:14:03.333Z,114.33
2019-05-02T06:16:35.589Z,116.63
2019-05-02T06:19:06.510Z,121.50
2019-05-02T06:21:39.975Z,124.03
2019-05-02T06:24:10.922Z,135.20
2019-05-02T06:26:44.664Z,136.53
2019-05-02T06:29:18.728Z,127.00
2019-05-02T06:31:52.954Z,125.97
2019-05-02T06:34:23.152Z,123.13
2019-05-02T06:36:53.331Z,138.33
2019-05-02T06:39:31.528Z,136.87
2019-05-02T06:42:01.585Z,114.47
2019-05-02T06:44:32.661Z,112.10
2019-05-02T06:47:05.729Z,90.17
2019-05-02T06:49:38.482Z,78.37
2019-05-02T06:52:10.483Z,69.53
2019-05-02T06:54:41.684Z,69.60
2019-05-02T06:57:19.132Z,73.63
2019-05-02T06:59:54.660Z,76.27
2019-05-02T07:02:28.308Z,81.53
2019-05-02T07:05:00.817Z,82.13
2019-05-02T07:07:37.107Z,81.83
2019-05-02T07:10:09.209Z,92.10
2019-05-02T07:12:46.138Z,83.93
2019-05-02T07:15:43.477Z,90.33
2019-05-02T07:18:15.066Z,80.13
2019-05-02T07:20:47.306Z,89.57
2019-05-02T07:23:18.371Z,85.73
2019-05-02T07:25:53.026Z,88.37
2019-05-02T07:28:28.947Z,95.83
2019-05-02T07:31:00.320Z,88.37
2019-05-02T07:33:37.013Z,91.97
2019-05-02T07:36:05.933Z,93.33
2019-05-02T07:38:36.542Z,93.90
2019-05-02T07:41:08.333Z,104.43
2019-05-02T07:43:40.748Z,92.10
2019-05-02T07:46:16.273Z,95.60
2019-05-02T07:48:49.044Z,94.43
2019-05-02T07:51:21.261Z,91.60
2019-05-02T07:53:55.491Z,99.50
2019-05-02T07:56:27.930Z,98.13
2019-05-02T07:59:04.601Z,111.00
2019-05-02T08:01:36.971Z,110.97
2019-05-02T08:04:11.326Z,112.47
2019-05-02T08:06:44.652Z,114.57
2019-05-02T08:09:16.338Z,104.33
2019-05-02T08:11:49.715Z,105.53
2019-05-02T08:14:24.237Z,116.50
2019-05-02T08:17:05.289Z,121.50
2019-05-02T08:19:49.969Z,110.00
2019-05-02T08:22:24.558Z,130.60
2019-05-02T08:24:55.878Z,110.97
2019-05-02T08:27:41.465Z,109.63
2019-05-02T08:30:24.955Z,103.50
2019-05-02T08:33:01.467Z,110.47
2019-05-02T08:35:32.758Z,98.77
2019-05-02T08:38:03.938Z,99.40
2019-05-02T08:40:34.435Z,111.53
2019-05-02T08:43:09.006Z,100.03
2019-05-02T08:45:39.619Z,93.90
2019-05-02T08:48:12.802Z,96.07
2019-05-02T08:50:43.373Z,93.73
2019-05-02T08:53:19.679Z,98.47
2019-05-02T08:55:47.726Z,93.07
2019-05-02T08:58:18.828Z,95.40
2019-05-02T09:00:50.496Z,99.07
2019-05-02T09:03:25.491Z,91.50
2019-05-02T09:06:05.506Z,94.37
2019-05-02T09:08:30.868Z,95.10
2019-05-02T09:11:02.722Z,91.37
2019-05-02T09:13:34.868Z,91.07
2019-05-02T09:16:06.126Z,94.60
2019-05-02T09:18:50.519Z,93.00
2019-05-02T09:21:16.821Z,86.07
2019-05-02T09:23:51.740Z,82.80
2019-05-02T09:26:35.202Z,83.23
2019-05-02T09:29:01.686Z,80.03
2019-05-02T09:31:36.819Z,86.10
2019-05-02T09:34:08.759Z,83.40
2019-05-02T09:36:38.951Z,82.47
2019-05-02T09:39:13.003Z,77.33
2019-05-02T09:41:45.644Z,84.60
2019-05-02T09:44:18.743Z,91.53
2019-05-02T09:46:53.109Z,88.47
2019-05-02T09:49:22.060Z,89.63
2019-05-02T09:51:59.227Z,87.70
2019-05-02T09:54:27.087Z,91.50
2019-05-02T09:56:57.865Z,84.83
2019-05-02T09:59:33.429Z,80.10
2019-05-02T10:02:09.381Z,81.33
2019-05-02T10:04:44.117Z,80.40
2019-05-02T10:07:15.947Z,77.33
2019-05-02T10:09:49.381Z,84.50
2019-05-02T10:12:22.983Z,83.20
2019-05-02T10:14:55.255Z,82.80
2019-05-02T10:17:27.958Z,86.30
2019-05-02T10:19:59.281Z,79.27
2019-05-02T10:22:32.321Z,85.67
2019-05-02T10:25:04.192Z,76.07
2019-05-02T10:27:38.461Z,80.17
2019-05-02T10:30:14.831Z,83.27
2019-05-02T10:32:47.155Z,86.03
2019-05-02T10:35:19.555Z,88.57
2019-05-02T10:37:49.719Z,86.07
2019-05-02T10:40:22.528Z,83.50
2019-05-02T10:42:54.106Z,78.87
2019-05-02T10:45:25.598Z,83.77
2019-05-02T10:47:57.767Z,72.90
2019-05-02T10:50:36.295Z,70.43
2019-05-02T10:53:11.876Z,69.50
2019-05-02T10:55:43.232Z,78.80
2019-05-02T10:58:14.441Z,75.17
2019-05-02T11:00:45.591Z,73.37
2019-05-02T11:03:46.190Z,72.60
2019-05-02T11:06:12.594Z,75.20
2019-05-02T11:08:46.113Z,71.10
2019-05-02T11:11:21.918Z,73.27
2019-05-02T11:14:05.602Z,69.10
2019-05-02T11:16:43.914Z,63.30
2019-05-02T11:19:33.884Z,64.60
2019-05-02T11:22:06.979Z,61.10
2019-05-02T11:24:41.700Z,64.23
2019-05-02T11:27:14.627Z,67.70
2019-05-02T11:29:46.699Z,65.17
2019-05-02T11:32:16.987Z,65.53
2019-05-02T11:34:48.214Z,60.23
2019-05-02T11:37:19.429Z,67.43
2019-05-02T11:40:04.463Z,68.13
2019-05-02T11:42:34.349Z,61.47
2019-05-02T11:45:05.980Z,61.77
2019-05-02T11:47:37.047Z,60.17
2019-05-02T11:50:08.735Z,67.47
2019-05-02T11:52:39.319Z,63.43
2019-05-02T11:55:13.099Z,61.13
2019-05-02T11:57:45.023Z,60.87
2019-05-02T12:00:17.677Z,57.17
2019-05-02T12:02:58.579Z,54.75
2019-05-02T12:05:39.180Z,57.65
2019-05-02T12:08:12.328Z,50.67
2019-05-02T12:10:42.980Z,62.80
2019-05-02T12:13:16.111Z,60.00
2019-05-02T12:15:51.888Z,64.57
2019-05-02T12:18:25.626Z,56.08
2019-05-02T12:20:57.186Z,60.47
2019-05-02T12:23:27.737Z,51.87
2019-05-02T12:26:05.978Z,51.03
2019-05-02T12:28:38.992Z,48.10
2019-05-02T12:31:22.691Z,47.10
2019-05-02T12:33:53.532Z,50.60
2019-05-02T12:36:27.207Z,50.73
2019-05-02T12:38:58.298Z,51.97
2019-05-02T12:41:28.905Z,51.13
2019-05-02T12:43:59.106Z,50.73
2019-05-02T12:46:33.101Z,52.80
2019-05-02T12:49:03.945Z,54.57
2019-05-02T12:51:34.211Z,50.33
2019-05-02T12:54:05.551Z,52.20
2019-05-02T12:56:37.034Z,56.60
2019-05-02T12:59:08.188Z,56.47
2019-05-02T13:01:42.026Z,51.97
2019-05-02T13:04:14.176Z,52.53
2019-05-02T13:06:46.252Z,47.07
2019-05-02T13:09:17.190Z,41.73
2019-05-02T13:12:02.799Z,43.57
2019-05-02T13:14:33.283Z,37.47
2019-05-02T13:17:05.953Z,37.47
2019-05-02T13:19:41.222Z,33.53
2019-05-02T13:22:21.800Z,31.60
2019-05-02T13:24:58.338Z,32.87
2019-05-02T13:27:32.210Z,34.33
2019-05-02T13:30:03.408Z,35.20
2019-05-02T13:32:42.687Z,38.13
2019-05-02T13:35:26.237Z,35.37
2019-05-02T13:37:59.906Z,41.67
2019-05-02T13:40:35.882Z,42.03
2019-05-02T13:43:07.405Z,37.33
2019-05-02T13:46:09.380Z,35.10
2019-05-02T13:48:43.025Z,37.87
2019-05-02T13:51:14.589Z,36.33
2019-05-02T13:53:57.300Z,31.52
2019-05-02T13:56:46.291Z,28.33
2019-05-02T13:59:18.738Z,28.77
2019-05-02T14:01:52.202Z,27.58
2019-05-02T14:04:24.147Z,27.42
2019-05-02T14:06:58.960Z,31.87
2019-05-02T14:09:53.046Z,30.00
2019-05-02T14:12:46.651Z,29.05
2019-05-02T14:15:22.120Z,31.15
2019-05-02T14:17:56.351Z,33.50
2019-05-02T14:20:28.757Z,33.80
2019-05-02T14:23:02.270Z,33.93
2019-05-02T14:25:34.480Z,29.73
2019-05-02T14:28:08.233Z,35.13
2019-05-02T14:30:41.962Z,34.00
2019-05-02T14:33:19.958Z,33.00
2019-05-02T14:35:54.308Z,34.63
2019-05-02T14:38:32.076Z,37.17
2019-05-02T14:41:15.901Z,36.20
2019-05-02T14:44:05.215Z,34.70
2019-05-02T14:46:39.263Z,38.83
2019-05-02T14:49:07.054Z,36.47
2019-05-02T14:51:37.745Z,45.27
2019-05-02T14:54:11.923Z,44.13
2019-05-02T14:57:01.966Z,47.30
2019-05-02T14:59:33.363Z,44.87
2019-05-02T15:02:07.949Z,49.20
2019-05-02T15:04:44.597Z,44.70
2019-05-02T15:07:17.667Z,42.13
2019-05-02T15:09:47.697Z,51.13
2019-05-02T15:12:19.235Z,47.53
2019-05-02T15:14:57.504Z,49.50
2019-05-02T15:17:28.055Z,51.40
2019-05-02T15:19:58.227Z,54.03
2019-05-02T15:22:33.095Z,52.20
2019-05-02T15:25:07.891Z,59.57
2019-05-02T15:27:41.986Z,53.90
2019-05-02T15:30:09.924Z,55.17
2019-05-02T15:32:52.779Z,50.63
2019-05-02T15:35:52.719Z,54.00
2019-05-02T15:38:27.998Z,48.70
2019-05-02T15:41:06.976Z,50.87
2019-05-02T15:43:39.299Z,45.63
2019-05-02T15:46:15.662Z,46.20
2019-05-02T15:48:43.809Z,50.73
2019-05-02T15:51:14.444Z,55.23
2019-05-02T15:54:05.381Z,56.33
2019-05-02T15:56:27.727Z,63.30
2019-05-02T15:59:04.230Z,65.10
2019-05-02T16:01:53.335Z,59.47
2019-05-02T16:04:26.939Z,57.93
2019-05-02T16:07:06.777Z,68.30
2019-05-02T16:09:37.301Z,69.13
2019-05-02T16:12:08.435Z,75.10
2019-05-02T16:14:42.706Z,71.33
2019-05-02T16:17:17.700Z,69.43
2019-05-02T16:19:58.647Z,67.20
2019-05-02T16:22:26.367Z,61.73
2019-05-02T16:25:01.635Z,57.47
2019-05-02T16:27:47.057Z,55.97
2019-05-02T16:30:22.338Z,60.33
2019-05-02T16:32:59.268Z,60.23
2019-05-02T16:35:33.108Z,65.90
2019-05-02T16:38:04.367Z,71.23
2019-05-02T16:40:35.688Z,66.13
2019-05-02T16:43:12.195Z,78.30
2019-05-02T16:45:43.935Z,77.10
2019-05-02T16:48:15.654Z,71.97
2019-05-02T16:50:46.233Z,73.63
2019-05-02T16:53:17.147Z,63.37
2019-05-02T16:55:49.741Z,58.37
2019-05-02T16:58:21.354Z,59.27
2019-05-02T17:00:58.037Z,54.73
2019-05-02T17:03:28.649Z,52.33
2019-05-02T17:06:01.664Z,53.77
2019-05-02T17:08:57.344Z,48.03
2019-05-02T17:11:35.961Z,59.60
2019-05-02T17:14:11.990Z,52.63
2019-05-02T17:16:47.075Z,53.80
2019-05-02T17:19:26.115Z,48.37
2019-05-02T17:21:57.395Z,45.17
2019-05-02T17:24:28.750Z,43.67
2019-05-02T17:27:03.489Z,43.90
2019-05-02T17:29:35.137Z,44.63
2019-05-02T17:32:08.928Z,43.93
2019-05-02T17:34:42.556Z,43.20
2019-05-02T17:37:14.037Z,43.70
2019-05-02T17:39:47.513Z,40.83
2019-05-02T17:42:22.355Z,39.93
2019-05-02T17:44:51.813Z,37.03
2019-05-02T17:47:23.248Z,37.80
2019-05-02T17:49:57.014Z,33.07
2019-05-02T17:52:50.552Z,30.67
2019-05-02T17:55:21.494Z,31.10
2019-05-02T17:57:54.792Z,29.03
2019-05-02T18:00:30.029Z,30.33
2019-05-02T18:03:02.519Z,29.73
2019-05-02T18:05:35.671Z,27.57
2019-05-02T18:08:10.967Z,26.97
2019-05-02T18:10:41.805Z,27.33
2019-05-02T18:13:17.559Z,29.13
2019-05-02T18:15:50.524Z,28.87
2019-05-02T18:18:24.249Z,29.73
2019-05-02T18:20:55.659Z,33.03
2019-05-02T18:23:28.810Z,31.13
2019-05-02T18:26:04.411Z,29.27
2019-05-02T18:28:47.045Z,31.87
2019-05-02T18:31:17.319Z,30.57
2019-05-02T18:33:48.019Z,31.33
2019-05-02T18:36:23.903Z,35.20
2019-05-02T18:38:54.252Z,32.83
2019-05-02T18:41:23.006Z,32.63
2019-05-02T18:43:55.084Z,33.33
2019-05-02T18:46:25.649Z,33.83
2019-05-02T18:48:58.324Z,35.97
2019-05-02T18:51:32.079Z,37.20
2019-05-02T18:54:07.356Z,35.10
2019-05-02T18:56:42.828Z,36.20
2019-05-02T18:59:14.154Z,38.93
2019-05-02T19:01:47.417Z,41.00
2019-05-02T19:04:17.163Z,39.50
2019-05-02T19:06:49.097Z,42.57
2019-05-02T19:09:25.006Z,39.50
2019-05-02T19:12:04.964Z,39.97
2019-05-02T19:14:28.228Z,43.20
2019-05-02T19:17:07.289Z,44.67
2019-05-02T19:19:38.898Z,42.63
2019-05-02T19:22:13.216Z,46.03
2019-05-02T19:24:42.434Z,43.80
2019-05-02T19:27:14.279Z,42.33
2019-05-02T19:29:49.480Z,49.77
2019-05-02T19:32:26.954Z,45.57
2019-05-02T19:34:57.820Z,45.97
2019-05-02T19:37:31.630Z,45.10
2019-05-02T19:40:03.085Z,41.23
2019-05-02T19:42:35.075Z,42.33
2019-05-02T19:45:11.484Z,47.53
2019-05-02T19:47:39.488Z,45.00
2019-05-02T19:50:41.461Z,41.30
2019-05-02T19:53:14.858Z,45.87
2019-05-02T19:55:43.874Z,44.47
2019-05-02T19:58:15.126Z,45.13
2019-05-02T20:00:46.649Z,43.93
2019-05-02T20:03:22.024Z,44.53
2019-05-02T20:05:56.682Z,40.47
2019-05-02T20:08:28.281Z,39.47
2019-05-02T20:10:58.644Z,41.23
2019-05-02T20:13:32.354Z,41.33
2019-05-02T20:16:11.989Z,44.23
2019-05-02T20:18:46.983Z,50.30
2019-05-02T20:21:27.893Z,45.70
2019-05-02T20:23:57.798Z,46.80
2019-05-02T20:26:29.823Z,45.33
2019-05-02T20:29:02.071Z,46.90
2019-05-02T20:31:33.225Z,51.57
2019-05-02T20:34:04.557Z,49.50
2019-05-02T20:36:37.278Z,46.80
2019-05-02T20:39:11.769Z,46.37
2019-05-02T20:41:42.831Z,44.07
2019-05-02T20:44:14.330Z,44.97
2019-05-02T20:46:46.755Z,43.13
2019-05-02T20:49:17.984Z,42.43
2019-05-02T20:51:48.297Z,41.37
2019-05-02T20:54:19.205Z,37.40
2019-05-02T20:56:49.430Z,36.70
2019-05-02T20:59:21.707Z,32.90
2019-05-02T21:01:53.850Z,37.40
2019-05-02T21:04:32.080Z,34.73
2019-05-02T21:07:16.194Z,34.23
2019-05-02T21:09:52.564Z,34.20
2019-05-02T21:12:22.834Z,35.20
2019-05-02T21:14:55.296Z,36.70
2019-05-02T21:17:30.157Z,34.07
2019-05-02T21:20:01.944Z,35.50
2019-05-02T21:22:33.350Z,31.87
2019-05-02T21:25:03.986Z,36.53
2019-05-02T21:27:34.662Z,36.23
2019-05-02T21:30:07.011Z,34.03
2019-05-02T21:32:39.299Z,27.40
2019-05-02T21:35:11.911Z,25.40
2019-05-02T21:37:42.551Z,25.90
2019-05-02T21:40:17.139Z,27.57
2019-05-02T21:42:48.655Z,25.27
2019-05-02T21:45:22.156Z,20.50
2019-05-02T21:47:54.010Z,20.63
2019-05-02T21:50:39.731Z,19.37
2019-05-02T21:53:38.725Z,19.90
2019-05-02T21:56:18.863Z,24.10
2019-05-02T21:59:05.593Z,18.93
2019-05-02T22:01:44.993Z,16.47
2019-05-02T22:04:19.282Z,18.03
2019-05-02T22:06:54.135Z,19.60
2019-05-02T22:09:26.505Z,15.93
2019-05-02T22:11:57.835Z,19.77
2019-05-02T22:14:28.653Z,14.93
2019-05-02T22:17:02.339Z,14.63
2019-05-02T22:19:35.656Z,18.47
2019-05-02T22:22:07.252Z,17.87
2019-05-02T22:24:39.756Z,15.90
2019-05-02T22:27:12.381Z,15.00
2019-05-02T22:29:43.227Z,16.13
2019-05-02T22:32:15.169Z,19.17
2019-05-02T22:34:49.341Z,15.73
2019-05-02T22:37:24.967Z,19.50
2019-05-02T22:40:03.664Z,14.73
2019-05-02T22:42:33.399Z,15.23
2019-05-02T22:45:05.268Z,14.63
2019-05-02T22:47:38.742Z,16.73
2019-05-02T22:50:09.701Z,16.43
2019-05-02T22:52:41.565Z,16.07
2019-05-02T22:55:12.285Z,13.73
2019-05-02T22:57:43.965Z,18.90
2019-05-02T23:00:16.304Z,15.07
2019-05-02T23:02:47.341Z,15.53
2019-05-02T23:05:20.748Z,14.33
2019-05-02T23:07:52.705Z,13.83
2019-05-02T23:10:27.704Z,15.47
2019-05-02T23:13:02.312Z,15.30
2019-05-02T23:15:33.171Z,13.57
2019-05-02T23:18:04.779Z,15.33
2019-05-02T23:20:42.188Z,14.23
2019-05-02T23:23:16.271Z,14.20
2019-05-02T23:26:08.343Z,16.50
2019-05-02T23:28:42.809Z,12.00
2019-05-02T23:31:14.217Z,17.00
2019-05-02T23:34:02.075Z,18.73
2019-05-02T23:36:34.353Z,17.37
2019-05-02T23:39:08.078Z,15.70
2019-05-02T23:41:42.075Z,14.00
2019-05-02T23:44:13.879Z,14.67
2019-05-02T23:46:44.432Z,15.73
2019-05-02T23:49:15.858Z,17.67
2019-05-02T23:51:49.295Z,16.33
2019-05-02T23:54:21.904Z,14.33
2019-05-02T23:56:52.426Z,14.17
2019-05-02T23:59:23.562Z,13.67
